createdAt,value
2019-03-24T00:00:08.888Z,10.57
2019-03-24T00:02:42.164Z,10.54
2019-03-24T00:05:14.946Z,10.42
2019-03-24T00:07:47.758Z,10.37
2019-03-24T00:10:20.567Z,10.30
2019-03-24T00:12:53.409Z,10.29
2019-03-24T00:15:26.804Z,10.22
2019-03-24T00:17:59.805Z,10.13
2019-03-24T00:20:32.573Z,10.12
2019-03-24T00:23:05.578Z,9.98
2019-03-24T00:25:38.341Z,9.95
2019-03-24T00:28:11.455Z,9.94
2019-03-24T00:30:44.260Z,9.94
2019-03-24T00:33:17.041Z,9.90
2019-03-24T00:35:49.837Z,9.89
2019-03-24T00:38:22.717Z,9.93
2019-03-24T00:40:55.562Z,10.01
2019-03-24T00:43:28.315Z,10.10
2019-03-24T00:46:01.516Z,10.21
2019-03-24T00:48:34.389Z,10.23
2019-03-24T00:51:07.529Z,10.26
2019-03-24T00:53:40.360Z,10.37
2019-03-24T00:56:13.125Z,10.33
2019-03-24T00:58:45.991Z,10.37
2019-03-24T01:01:19.349Z,10.35
2019-03-24T01:03:52.145Z,10.41
2019-03-24T01:06:25.021Z,10.44
2019-03-24T01:08:57.803Z,10.41
2019-03-24T01:11:31.127Z,10.43
2019-03-24T01:14:03.917Z,10.37
2019-03-24T01:16:36.748Z,10.34
2019-03-24T01:19:09.741Z,10.37
2019-03-24T01:21:42.621Z,10.42
2019-03-24T01:24:15.533Z,10.45
2019-03-24T01:26:48.307Z,10.44
2019-03-24T01:29:21.473Z,10.49
2019-03-24T01:31:54.251Z,10.45
2019-03-24T01:34:27.123Z,10.51
2019-03-24T01:37:00.013Z,10.42
2019-03-24T01:39:32.819Z,10.27
2019-03-24T01:42:07.629Z,10.24
2019-03-24T01:44:41.245Z,10.22
2019-03-24T01:47:14.050Z,10.18
2019-03-24T01:49:46.822Z,10.16
2019-03-24T01:52:19.611Z,10.10
2019-03-24T01:54:52.427Z,10.03
2019-03-24T01:57:25.205Z,10.07
2019-03-24T01:59:57.995Z,10.01
2019-03-24T02:02:31.005Z,9.91
2019-03-24T02:05:04.005Z,9.77
2019-03-24T02:07:36.793Z,9.86
2019-03-24T02:10:10.435Z,9.81
2019-03-24T02:12:43.264Z,9.69
2019-03-24T02:15:16.293Z,9.68
2019-03-24T02:17:49.294Z,9.73
2019-03-24T02:20:22.061Z,9.71
2019-03-24T02:22:54.857Z,9.62
2019-03-24T02:25:27.677Z,9.43
2019-03-24T02:28:00.711Z,9.42
2019-03-24T02:30:33.480Z,9.17
2019-03-24T02:33:06.234Z,8.97
2019-03-24T02:35:39.004Z,8.80
2019-03-24T02:38:11.925Z,8.65
2019-03-24T02:40:44.686Z,8.65
2019-03-24T02:43:17.417Z,8.46
2019-03-24T02:45:50.147Z,8.37
2019-03-24T02:48:22.940Z,8.27
2019-03-24T02:50:55.827Z,8.14
2019-03-24T02:53:28.820Z,8.05
2019-03-24T02:56:01.623Z,8.03
2019-03-24T02:58:34.523Z,7.89
2019-03-24T03:01:08.483Z,7.87
2019-03-24T03:03:41.223Z,7.77
2019-03-24T03:06:14.009Z,7.72
2019-03-24T03:08:46.747Z,7.70
2019-03-24T03:11:19.458Z,7.66
2019-03-24T03:13:52.212Z,7.63
2019-03-24T03:16:37.908Z,7.66
2019-03-24T03:18:59.406Z,7.65
2019-03-24T03:21:32.271Z,7.63
2019-03-24T03:24:05.024Z,7.61
2019-03-24T03:26:37.809Z,7.56
2019-03-24T03:29:10.540Z,7.56
2019-03-24T03:31:43.348Z,7.46
2019-03-24T03:34:16.161Z,7.47
2019-03-24T03:36:49.082Z,7.38
2019-03-24T03:39:22.053Z,7.33
2019-03-24T03:41:54.797Z,7.25
2019-03-24T03:44:27.535Z,7.26
2019-03-24T03:47:00.319Z,7.25
2019-03-24T03:49:33.151Z,7.20
2019-03-24T03:52:05.909Z,7.16
2019-03-24T03:54:38.691Z,7.12
2019-03-24T03:57:11.544Z,7.07
2019-03-24T03:59:44.324Z,7.02
2019-03-24T04:02:17.128Z,6.99
2019-03-24T04:04:49.851Z,6.99
2019-03-24T04:07:22.634Z,6.98
2019-03-24T04:09:55.396Z,7.02
2019-03-24T04:12:29.454Z,6.97
2019-03-24T04:15:02.210Z,6.97
2019-03-24T04:17:34.940Z,6.98
2019-03-24T04:20:08.079Z,7.05
2019-03-24T04:22:40.823Z,7.12
2019-03-24T04:25:13.603Z,7.09
2019-03-24T04:27:46.349Z,7.09
2019-03-24T04:30:19.199Z,7.06
2019-03-24T04:32:52.033Z,6.91
2019-03-24T04:35:24.909Z,6.95
2019-03-24T04:37:57.656Z,6.95
2019-03-24T04:40:31.220Z,6.92
2019-03-24T04:43:03.993Z,6.89
2019-03-24T04:45:36.744Z,6.82
2019-03-24T04:48:09.513Z,6.80
2019-03-24T04:50:42.343Z,6.84
2019-03-24T04:53:15.121Z,6.81
2019-03-24T04:55:47.903Z,6.84
2019-03-24T04:58:20.686Z,6.84
2019-03-24T05:00:53.417Z,6.99
2019-03-24T05:03:26.369Z,7.05
2019-03-24T05:05:59.392Z,7.13
2019-03-24T05:08:32.145Z,7.22
2019-03-24T05:11:04.951Z,7.40
2019-03-24T05:13:37.684Z,7.48
2019-03-24T05:16:10.998Z,7.69
2019-03-24T05:18:43.750Z,7.73
2019-03-24T05:21:16.542Z,7.77
2019-03-24T05:23:49.327Z,7.84
2019-03-24T05:26:22.050Z,8.00
2019-03-24T05:28:54.851Z,8.16
2019-03-24T05:31:27.607Z,8.20
2019-03-24T05:34:00.708Z,8.23
2019-03-24T05:36:33.477Z,8.40
2019-03-24T05:39:07.771Z,8.42
2019-03-24T05:41:40.974Z,8.50
2019-03-24T05:44:13.733Z,8.53
2019-03-24T05:46:46.486Z,8.56
2019-03-24T05:49:19.258Z,8.74
2019-03-24T05:51:52.046Z,8.72
2019-03-24T05:54:24.798Z,8.89
2019-03-24T05:56:57.541Z,9.09
2019-03-24T05:59:30.329Z,9.34
2019-03-24T06:02:03.203Z,9.21
2019-03-24T06:04:35.947Z,9.75
2019-03-24T06:07:08.827Z,9.92
2019-03-24T06:09:41.937Z,10.37
2019-03-24T06:12:14.709Z,10.75
2019-03-24T06:14:47.499Z,10.98
2019-03-24T06:17:20.261Z,10.93
2019-03-24T06:19:53.095Z,10.88
2019-03-24T06:22:25.875Z,10.49
2019-03-24T06:24:58.813Z,10.36
2019-03-24T06:27:31.578Z,10.30
2019-03-24T06:30:07.788Z,10.56
2019-03-24T06:32:40.548Z,10.54
2019-03-24T06:35:13.378Z,10.70
2019-03-24T06:37:46.183Z,10.58
2019-03-24T06:40:19.866Z,10.69
2019-03-24T06:42:52.822Z,11.05
2019-03-24T06:45:28.584Z,11.24
2019-03-24T06:48:00.054Z,11.15
2019-03-24T06:50:32.783Z,11.32
2019-03-24T06:53:05.522Z,11.45
2019-03-24T06:55:38.320Z,11.65
2019-03-24T06:58:11.129Z,11.98
2019-03-24T07:00:43.875Z,12.55
2019-03-24T07:03:16.668Z,13.46
2019-03-24T07:05:49.544Z,13.59
2019-03-24T07:08:22.321Z,14.98
2019-03-24T07:10:55.101Z,17.41
2019-03-24T07:13:28.031Z,19.50
2019-03-24T07:16:01.309Z,20.25
2019-03-24T07:18:34.118Z,20.03
2019-03-24T07:21:06.880Z,19.09
2019-03-24T07:23:39.714Z,19.29
2019-03-24T07:26:12.518Z,20.11
2019-03-24T07:28:45.346Z,22.46
2019-03-24T07:31:18.099Z,21.86
2019-03-24T07:33:51.311Z,24.32
2019-03-24T07:36:24.077Z,25.16
2019-03-24T07:38:56.865Z,26.60
2019-03-24T07:41:29.656Z,24.83
2019-03-24T07:44:02.423Z,24.10
2019-03-24T07:46:35.271Z,23.49
2019-03-24T07:49:08.078Z,22.85
2019-03-24T07:51:41.142Z,23.68
2019-03-24T07:54:14.011Z,25.60
2019-03-24T07:56:46.838Z,29.64
2019-03-24T07:59:19.645Z,30.42
2019-03-24T08:01:52.433Z,31.29
2019-03-24T08:04:25.273Z,30.72
2019-03-24T08:06:58.063Z,28.83
2019-03-24T08:09:30.849Z,33.01
2019-03-24T08:12:04.023Z,33.64
2019-03-24T08:14:36.797Z,35.40
2019-03-24T08:17:09.585Z,38.69
2019-03-24T08:19:42.421Z,38.51
2019-03-24T08:22:15.206Z,40.44
2019-03-24T08:24:47.964Z,39.61
2019-03-24T08:27:26.888Z,40.65
2019-03-24T08:29:59.660Z,41.73
2019-03-24T08:32:32.489Z,43.15
2019-03-24T08:35:06.456Z,43.41
2019-03-24T08:37:39.312Z,40.61
2019-03-24T08:40:12.149Z,40.52
2019-03-24T08:42:44.948Z,40.59
2019-03-24T08:45:27.795Z,41.72
2019-03-24T08:48:01.143Z,43.74
2019-03-24T08:50:33.936Z,44.38
2019-03-24T08:53:06.730Z,45.87
2019-03-24T08:55:39.513Z,45.67
2019-03-24T08:58:12.300Z,35.39
2019-03-24T09:00:45.076Z,37.91
2019-03-24T09:03:17.805Z,41.97
2019-03-24T09:05:51.068Z,45.24
2019-03-24T09:08:23.836Z,48.29
2019-03-24T09:10:56.626Z,48.02
2019-03-24T09:13:29.451Z,49.20
2019-03-24T09:16:02.319Z,51.37
2019-03-24T09:18:35.042Z,51.60
2019-03-24T09:21:07.919Z,50.50
2019-03-24T09:23:41.048Z,49.71
2019-03-24T09:26:13.849Z,49.62
2019-03-24T09:28:46.631Z,51.32
2019-03-24T09:31:19.388Z,51.84
2019-03-24T09:33:52.229Z,53.81
2019-03-24T09:36:25.170Z,56.50
2019-03-24T09:38:57.956Z,55.48
2019-03-24T09:41:30.723Z,55.39
2019-03-24T09:44:03.538Z,53.79
2019-03-24T09:46:36.393Z,53.78
2019-03-24T09:49:09.158Z,54.43
2019-03-24T09:51:41.954Z,54.91
2019-03-24T09:54:14.825Z,54.68
2019-03-24T09:56:47.593Z,54.42
2019-03-24T09:59:20.439Z,54.49
2019-03-24T10:01:53.164Z,55.65
2019-03-24T10:04:25.979Z,55.39
2019-03-24T10:06:58.761Z,55.32
2019-03-24T10:09:31.874Z,55.08
2019-03-24T10:12:04.733Z,55.54
2019-03-24T10:14:37.497Z,54.94
2019-03-24T10:17:10.279Z,55.49
2019-03-24T10:19:43.091Z,55.47
2019-03-24T10:22:15.824Z,55.95
2019-03-24T10:24:48.578Z,55.94
2019-03-24T10:27:21.631Z,52.03
2019-03-24T10:29:54.419Z,46.84
2019-03-24T10:32:27.197Z,48.30
2019-03-24T10:35:00.325Z,50.52
2019-03-24T10:37:33.112Z,52.82
2019-03-24T10:40:06.350Z,54.14
2019-03-24T10:42:39.797Z,54.17
2019-03-24T10:45:13.399Z,54.97
2019-03-24T10:47:46.174Z,53.46
2019-03-24T10:50:19.138Z,53.48
2019-03-24T10:52:52.099Z,54.28
2019-03-24T10:55:24.866Z,55.72
2019-03-24T10:57:57.700Z,54.90
2019-03-24T11:00:44.658Z,54.27
2019-03-24T11:03:17.507Z,55.96
2019-03-24T11:05:50.274Z,55.05
2019-03-24T11:08:23.061Z,55.71
2019-03-24T11:10:55.924Z,52.77
2019-03-24T11:13:28.762Z,48.39
2019-03-24T11:16:01.879Z,51.30
2019-03-24T11:18:34.674Z,50.60
2019-03-24T11:21:08.880Z,49.64
2019-03-24T11:32:51.954Z,32.83
2019-03-24T11:35:27.623Z,34.55
2019-03-24T11:38:01.040Z,38.09
2019-03-24T11:40:33.877Z,40.32
2019-03-24T11:43:07.829Z,42.31
2019-03-24T11:45:41.024Z,44.09
2019-03-24T11:48:13.861Z,45.48
2019-03-24T11:50:46.794Z,46.41
2019-03-24T11:53:19.718Z,44.91
2019-03-24T11:55:52.622Z,41.19
2019-03-24T11:58:25.420Z,38.17
2019-03-24T12:00:58.342Z,36.70
2019-03-24T12:03:31.101Z,35.47
2019-03-24T12:06:13.911Z,34.04
2019-03-24T12:08:38.920Z,32.70
2019-03-24T12:11:12.221Z,31.68
2019-03-24T12:13:45.050Z,30.51
2019-03-24T12:16:17.880Z,29.46
2019-03-24T12:18:50.710Z,28.08
2019-03-24T12:21:23.706Z,26.92
2019-03-24T12:23:56.489Z,26.22
2019-03-24T12:26:29.371Z,25.73
2019-03-24T12:29:02.320Z,25.31
2019-03-24T12:31:35.234Z,25.10
2019-03-24T12:34:08.105Z,24.65
2019-03-24T12:36:41.356Z,24.01
2019-03-24T12:39:14.208Z,23.44
2019-03-24T12:41:47.071Z,23.07
2019-03-24T12:44:20.081Z,23.09
2019-03-24T12:46:52.991Z,23.26
2019-03-24T12:49:25.825Z,23.04
2019-03-24T12:51:58.666Z,22.67
2019-03-24T12:54:32.690Z,22.42
2019-03-24T12:57:05.459Z,22.10
2019-03-24T12:59:38.313Z,21.78
2019-03-24T13:02:11.538Z,21.50
2019-03-24T13:04:44.485Z,21.37
2019-03-24T13:07:17.288Z,21.27
2019-03-24T13:09:50.136Z,21.08
2019-03-24T13:12:23.136Z,20.87
2019-03-24T13:14:55.942Z,20.53
2019-03-24T13:17:28.832Z,20.24
2019-03-24T13:20:01.911Z,20.04
2019-03-24T13:22:35.455Z,19.89
2019-03-24T13:25:08.810Z,19.71
2019-03-24T13:27:41.669Z,19.65
2019-03-24T13:30:14.701Z,19.60
2019-03-24T13:32:48.583Z,19.56
2019-03-24T13:35:40.271Z,19.68
2019-03-24T13:38:12.398Z,19.80
2019-03-24T13:40:45.226Z,19.88
2019-03-24T13:43:18.001Z,19.81
2019-03-24T13:45:51.326Z,19.62
2019-03-24T13:48:24.169Z,19.37
2019-03-24T13:50:57.022Z,19.26
2019-03-24T13:53:29.866Z,19.33
2019-03-24T13:56:02.744Z,19.42
2019-03-24T13:58:37.904Z,19.36
2019-03-24T14:01:11.077Z,19.18
2019-03-24T14:03:43.932Z,19.09
2019-03-24T14:06:16.819Z,19.03
2019-03-24T14:08:49.787Z,19.01
2019-03-24T14:11:24.257Z,18.94
2019-03-24T14:13:57.195Z,18.87
2019-03-24T14:16:31.175Z,18.94
2019-03-24T14:19:06.350Z,19.11
2019-03-24T14:21:39.381Z,19.29
2019-03-24T14:24:12.404Z,19.39
2019-03-24T14:26:45.451Z,19.51
2019-03-24T14:29:18.265Z,19.54
2019-03-24T14:31:51.156Z,19.65
2019-03-24T14:34:26.841Z,19.71
2019-03-24T14:37:00.875Z,19.64
2019-03-24T14:39:33.776Z,19.49
2019-03-24T14:42:06.905Z,19.32
2019-03-24T14:44:39.794Z,19.19
2019-03-24T14:47:12.726Z,19.04
2019-03-24T14:49:45.659Z,18.77
2019-03-24T14:52:18.662Z,18.67
2019-03-24T14:54:51.427Z,18.52
2019-03-24T14:57:24.391Z,18.32
2019-03-24T14:59:57.370Z,18.16
2019-03-24T15:02:30.988Z,17.96
2019-03-24T15:05:03.833Z,17.77
2019-03-24T15:07:36.684Z,17.58
2019-03-24T15:10:09.706Z,17.43
2019-03-24T15:12:42.631Z,17.27
2019-03-24T15:15:15.508Z,17.17
2019-03-24T15:17:48.342Z,17.08
2019-03-24T15:20:21.389Z,17.00
2019-03-24T15:22:54.271Z,16.88
2019-03-24T15:25:27.165Z,16.84
2019-03-24T15:28:00.036Z,16.73
2019-03-24T15:30:32.931Z,16.65
2019-03-24T15:33:05.765Z,16.48
2019-03-24T15:35:38.674Z,16.32
2019-03-24T15:38:11.888Z,16.18
2019-03-24T15:40:45.031Z,16.06
2019-03-24T15:43:17.965Z,15.94
2019-03-24T15:45:51.231Z,15.82
2019-03-24T15:48:24.050Z,15.74
2019-03-24T15:50:56.839Z,15.68
2019-03-24T15:53:29.680Z,15.55
2019-03-24T15:56:02.551Z,15.48
2019-03-24T15:58:35.569Z,15.39
2019-03-24T16:01:08.347Z,15.22
2019-03-24T16:03:41.700Z,15.10
2019-03-24T16:06:14.476Z,14.95
2019-03-24T16:08:47.241Z,14.89
2019-03-24T16:11:20.178Z,14.77
2019-03-24T16:13:52.968Z,14.67
2019-03-24T16:16:25.788Z,14.59
2019-03-24T16:18:58.709Z,14.51
2019-03-24T16:21:31.609Z,14.41
2019-03-24T16:24:04.408Z,14.34
2019-03-24T16:26:37.256Z,14.27
2019-03-24T16:29:10.047Z,14.23
2019-03-24T16:31:42.944Z,14.19
2019-03-24T16:34:15.759Z,14.10
2019-03-24T16:36:48.663Z,14.03
2019-03-24T16:39:21.903Z,13.95
2019-03-24T16:41:54.764Z,13.90
2019-03-24T16:44:27.695Z,13.85
2019-03-24T16:47:00.777Z,13.76
2019-03-24T16:49:33.603Z,13.67
2019-03-24T16:52:06.504Z,13.59
2019-03-24T16:54:39.485Z,13.58
2019-03-24T16:57:12.416Z,13.53
2019-03-24T16:59:45.347Z,13.52
2019-03-24T17:02:18.470Z,13.50
2019-03-24T17:04:51.261Z,13.45
2019-03-24T17:07:24.097Z,13.42
2019-03-24T17:09:58.793Z,13.37
2019-03-24T17:12:31.635Z,13.32
2019-03-24T17:15:04.833Z,13.28
2019-03-24T17:17:38.403Z,13.13
2019-03-24T17:20:12.495Z,13.02
2019-03-24T17:22:45.344Z,12.91
2019-03-24T17:25:18.432Z,12.83
2019-03-24T17:27:51.242Z,12.80
2019-03-24T17:30:24.112Z,12.78
2019-03-24T17:32:56.971Z,12.77
2019-03-24T17:35:29.923Z,12.73
2019-03-24T17:38:02.766Z,12.70
2019-03-24T17:40:39.105Z,12.67
2019-03-24T17:43:11.180Z,12.67
2019-03-24T17:45:44.130Z,12.65
2019-03-24T17:48:16.964Z,12.64
2019-03-24T17:50:49.927Z,12.60
2019-03-24T17:53:22.730Z,12.56
2019-03-24T17:55:57.421Z,12.43
2019-03-24T17:58:32.939Z,12.23
2019-03-24T18:01:06.069Z,12.14
2019-03-24T18:03:38.867Z,12.12
2019-03-24T18:06:12.293Z,12.15
2019-03-24T18:08:45.193Z,12.21
2019-03-24T18:11:18.035Z,12.20
2019-03-24T18:13:51.027Z,12.23
2019-03-24T18:16:23.933Z,12.27
2019-03-24T18:18:56.772Z,12.28
2019-03-24T18:21:29.777Z,12.34
2019-03-24T18:24:02.755Z,12.36
2019-03-24T18:26:35.903Z,12.33
2019-03-24T18:29:08.731Z,12.36
2019-03-24T18:31:41.993Z,12.32
2019-03-24T18:34:14.859Z,12.30
2019-03-24T18:36:47.669Z,12.22
2019-03-24T18:39:20.571Z,12.22
2019-03-24T18:41:53.467Z,12.19
2019-03-24T18:44:26.351Z,12.13
2019-03-24T18:46:59.256Z,12.11
2019-03-24T18:49:32.129Z,12.00
2019-03-24T18:52:04.930Z,11.88
2019-03-24T18:54:37.918Z,11.83
2019-03-24T18:57:11.098Z,11.82
2019-03-24T18:59:44.070Z,11.79
2019-03-24T19:02:16.962Z,11.75
2019-03-24T19:04:49.880Z,11.77
2019-03-24T19:07:22.688Z,11.80
2019-03-24T19:09:55.485Z,11.82
2019-03-24T19:12:28.319Z,11.87
2019-03-24T19:15:01.134Z,11.90
2019-03-24T19:17:34.111Z,11.94
2019-03-24T19:20:08.196Z,11.93
2019-03-24T19:22:41.026Z,11.92
2019-03-24T19:25:14.131Z,11.94
2019-03-24T19:27:47.073Z,11.93
2019-03-24T19:30:22.750Z,11.91
2019-03-24T19:32:55.688Z,11.91
2019-03-24T19:35:28.515Z,11.93
2019-03-24T19:38:02.684Z,11.94
2019-03-24T19:40:35.698Z,11.92
2019-03-24T19:43:08.686Z,11.87
2019-03-24T19:45:41.533Z,11.88
2019-03-24T19:48:14.433Z,11.87
2019-03-24T19:50:47.218Z,11.84
2019-03-24T19:53:20.064Z,11.83
2019-03-24T19:55:52.977Z,11.82
2019-03-24T19:58:25.942Z,11.83
2019-03-24T20:00:58.788Z,11.84
2019-03-24T20:03:31.868Z,11.84
2019-03-24T20:06:04.837Z,11.87
2019-03-24T20:08:37.666Z,11.87
2019-03-24T20:11:10.507Z,11.85
2019-03-24T20:13:43.907Z,11.84
2019-03-24T20:16:17.863Z,11.78
2019-03-24T20:18:50.729Z,11.72
2019-03-24T20:21:23.595Z,11.69
2019-03-24T20:23:56.399Z,11.66
2019-03-24T20:26:29.274Z,11.62
2019-03-24T20:29:04.342Z,11.62
2019-03-24T20:31:37.149Z,11.60
2019-03-24T20:34:10.176Z,11.62
2019-03-24T20:36:43.263Z,11.65
2019-03-24T20:39:16.281Z,11.67
2019-03-24T20:41:49.101Z,11.68
2019-03-24T20:44:22.161Z,11.70
2019-03-24T20:46:54.977Z,11.70
2019-03-24T20:49:27.857Z,11.70
2019-03-24T20:52:01.073Z,11.69
2019-03-24T20:54:33.912Z,11.64
2019-03-24T20:57:06.741Z,11.61
2019-03-24T20:59:39.646Z,11.60
2019-03-24T21:02:12.512Z,11.55
2019-03-24T21:04:45.275Z,11.53
2019-03-24T21:07:18.136Z,11.53
2019-03-24T21:09:50.964Z,11.53
2019-03-24T21:12:23.718Z,11.53
2019-03-24T21:14:56.560Z,11.43
2019-03-24T21:17:29.328Z,11.39
2019-03-24T21:20:02.259Z,11.34
2019-03-24T21:22:35.205Z,11.28
2019-03-24T21:25:09.029Z,11.21
2019-03-24T21:27:42.014Z,11.13
2019-03-24T21:30:15.281Z,11.12
2019-03-24T21:32:48.191Z,11.10
2019-03-24T21:35:21.364Z,11.09
2019-03-24T21:37:54.235Z,11.08
2019-03-24T21:40:27.089Z,11.08
2019-03-24T21:42:59.987Z,11.10
2019-03-24T21:45:32.855Z,11.09
2019-03-24T21:48:06.377Z,11.12
2019-03-24T21:50:39.398Z,11.12
2019-03-24T21:53:12.229Z,11.14
2019-03-24T21:55:45.286Z,11.12
2019-03-24T21:58:18.100Z,11.10
2019-03-24T22:00:51.450Z,11.08
2019-03-24T22:03:24.244Z,11.04
2019-03-24T22:05:57.103Z,11.07
2019-03-24T22:08:30.014Z,11.03
2019-03-24T22:11:02.848Z,10.95
2019-03-24T22:13:35.679Z,10.89
2019-03-24T22:16:08.490Z,10.74
2019-03-24T22:18:41.565Z,10.67
2019-03-24T22:21:14.377Z,10.61
2019-03-24T22:23:52.086Z,10.57
2019-03-24T22:26:22.171Z,10.58
2019-03-24T22:28:55.180Z,10.56
2019-03-24T22:31:28.105Z,10.54
2019-03-24T22:34:01.502Z,10.51
2019-03-24T22:36:34.315Z,10.49
2019-03-24T22:39:09.050Z,10.52
2019-03-24T22:41:43.846Z,10.44
2019-03-24T22:44:16.375Z,10.41
2019-03-24T22:46:49.158Z,10.35
2019-03-24T22:49:21.983Z,10.32
2019-03-24T22:52:06.481Z,10.29
2019-03-24T22:54:29.399Z,10.26
2019-03-24T22:57:03.408Z,10.28
2019-03-24T22:59:36.228Z,10.25
2019-03-24T23:02:09.197Z,10.24
2019-03-24T23:04:42.157Z,10.14
2019-03-24T23:07:14.956Z,10.18
2019-03-24T23:09:47.815Z,10.16
2019-03-24T23:12:21.006Z,10.09
2019-03-24T23:14:53.875Z,10.05
2019-03-24T23:17:26.783Z,10.03
2019-03-24T23:19:59.560Z,10.00
2019-03-24T23:22:32.446Z,9.98
2019-03-24T23:25:05.247Z,9.93
2019-03-24T23:27:38.071Z,9.95
2019-03-24T23:30:12.506Z,9.98
2019-03-24T23:32:45.326Z,9.97
2019-03-24T23:35:18.108Z,9.94
2019-03-24T23:37:51.027Z,9.89
2019-03-24T23:40:26.730Z,9.87
2019-03-24T23:42:59.808Z,9.88
2019-03-24T23:45:33.883Z,9.90
2019-03-24T23:48:07.444Z,9.95
2019-03-24T23:50:40.201Z,9.96
2019-03-24T23:53:13.072Z,9.96
2019-03-24T23:55:45.858Z,9.93
2019-03-24T23:58:18.708Z,9.90
